Time;durP1;ratioP1;P1;durP2;ratioP2;P2;SDS_P1;SDS_P2;PMS_P1;PMS_P2;Temp;Humidity;BMP_temperature;BMP_pressure;BME280_temperature;BME280_humidity;BME280_pressure;Samples;Min_cycle;Max_cycle;Signal;HPM_P1;HPM_P2
2023/04/06 00:02:07;;;;;;;1.60;1.60;;;17.70;62.30;;;;;;5108300;27;43496;-71
2023/04/06 00:04:35;;;;;;;1.40;1.40;;;17.70;62.30;;;;;;5105765;27;43486;-72
2023/04/06 00:07:04;;;;;;;1.50;1.50;;;17.70;62.40;;;;;;5108479;27;43824;-70
2023/04/06 00:09:32;;;;;;;1.33;1.33;;;17.70;62.50;;;;;;5108736;27;44319;-71
2023/04/06 00:12:00;;;;;;;1.50;1.50;;;17.70;62.70;;;;;;5095447;27;43417;-71
2023/04/06 00:14:28;;;;;;;1.50;1.50;;;17.60;62.60;;;;;;5097252;27;43538;-71
2023/04/06 00:16:56;;;;;;;1.50;1.50;;;17.70;63.30;;;;;;5104561;27;44076;-70
2023/04/06 00:19:26;;;;;;;1.50;1.50;;;17.80;62.30;;;;;;5108896;27;43963;-71
2023/04/06 00:21:54;;;;;;;1.60;1.60;;;17.80;62.00;;;;;;5104189;27;44582;-72
2023/04/06 00:24:22;;;;;;;1.53;1.53;;;17.80;62.20;;;;;;5099910;27;43493;-70
2023/04/06 00:26:50;;;;;;;1.50;1.50;;;17.70;62.20;;;;;;5107799;27;43912;-72
2023/04/06 00:29:18;;;;;;;1.70;1.70;;;17.70;62.40;;;;;;5107781;27;43525;-70
2023/04/06 00:31:46;;;;;;;1.40;1.40;;;17.70;62.20;;;;;;5108291;27;43920;-71
2023/04/06 00:34:14;;;;;;;1.40;1.40;;;17.70;62.30;;;;;;5108770;27;43488;-71
2023/04/06 00:36:44;;;;;;;1.50;1.50;;;17.70;62.40;;;;;;5087401;27;44917;-71
2023/04/06 00:39:12;;;;;;;1.50;1.50;;;17.60;62.40;;;;;;5107831;27;43440;-72
2023/04/06 00:41:40;;;;;;;1.53;1.53;;;17.60;62.50;;;;;;5096771;27;43482;-71
2023/04/06 00:44:08;;;;;;;1.60;1.60;;;17.60;62.70;;;;;;5094000;27;43610;-72
2023/04/06 00:46:36;;;;;;;1.47;1.47;;;17.60;62.40;;;;;;5085026;27;44182;-70
2023/04/06 00:49:04;;;;;;;1.50;1.50;;;17.60;62.50;;;;;;5108031;27;43510;-72
2023/04/06 00:51:33;;;;;;;1.57;1.57;;;17.60;62.50;;;;;;5096689;27;43487;-70
2023/04/06 00:54:02;;;;;;;1.70;1.70;;;17.60;62.60;;;;;;5103840;27;43442;-71
2023/04/06 00:56:33;;;;;;;1.53;1.53;;;17.60;63.40;;;;;;5092445;27;43966;-70
2023/04/06 00:59:01;;;;;;;1.60;1.60;;;17.60;62.80;;;;;;5107785;27;43419;-70
2023/04/06 01:01:32;;;;;;;1.43;1.43;;;17.60;62.70;;;;;;5107661;27;43960;-69
2023/04/06 01:04:07;;;;;;;1.77;1.77;;;17.70;62.50;;;;;;5382700;22;44244;-69
2023/04/06 01:06:41;;;;;;;1.47;1.47;;;17.80;62.20;;;;;;5052285;28;44040;-69
2023/04/06 01:09:11;;;;;;;1.50;1.50;;;17.80;61.90;;;;;;5049286;28;44705;-68
2023/04/06 01:11:39;;;;;;;1.50;1.50;;;17.80;61.90;;;;;;5080901;28;43446;-70
2023/04/06 01:14:11;;;;;;;1.60;1.60;;;17.80;62.20;;;;;;5067392;28;43420;-69
2023/04/06 01:16:54;;;;;;;1.63;1.63;;;17.80;62.10;;;;;;5053067;28;45779;-67
2023/04/06 01:19:27;;;;;;;1.63;1.63;;;17.80;61.90;;;;;;5048375;28;44635;-69
2023/04/06 01:21:56;;;;;;;1.43;1.43;;;17.80;62.10;;;;;;5060919;28;43373;-70
2023/04/06 01:24:46;;;;;;;1.70;1.70;;;17.70;62.10;;;;;;5063130;28;43467;-69
2023/04/06 01:27:23;;;;;;;1.80;1.80;;;17.70;62.30;;;;;;5057731;28;43643;-69
2023/04/06 01:30:04;;;;;;;1.60;1.60;;;17.70;62.50;;;;;;5050381;28;43416;-71
2023/04/06 01:32:51;;;;;;;1.40;1.40;;;17.70;62.30;;;;;;5063764;28;43454;-67
2023/04/06 01:35:31;;;;;;;1.70;1.70;;;17.70;62.30;;;;;;5048646;28;43442;-69
2023/04/06 01:38:10;;;;;;;1.60;1.60;;;17.70;62.30;;;;;;5046767;28;45733;-68
2023/04/06 01:40:40;;;;;;;1.50;1.50;;;17.60;62.30;;;;;;5045714;28;44464;-68
2023/04/06 01:43:10;;;;;;;1.70;1.70;;;17.60;62.40;;;;;;5050646;28;43451;-69
2023/04/06 01:45:50;;;;;;;1.60;1.60;;;17.60;62.50;;;;;;5066444;28;43465;-68
2023/04/06 01:48:21;;;;;;;1.47;1.47;;;17.70;62.40;;;;;;5054373;28;46062;-69
2023/04/06 01:50:50;;;;;;;1.63;1.63;;;17.80;62.20;;;;;;5070919;28;45133;-69
2023/04/06 01:53:25;;;;;;;1.53;1.53;;;17.90;61.90;;;;;;5047743;28;43491;-72
2023/04/06 01:56:01;;;;;;;1.63;1.63;;;17.80;61.70;;;;;;5068923;28;43519;-69
2023/04/06 01:58:37;;;;;;;1.80;1.80;;;17.80;61.80;;;;;;5058638;28;46025;-68
2023/04/06 02:01:05;;;;;;;1.43;1.43;;;17.80;62.10;;;;;;5055286;28;43428;-69
2023/04/06 02:03:46;;;;;;;1.87;1.87;;;17.80;61.90;;;;;;5048778;28;43505;-69
2023/04/06 02:06:15;;;;;;;1.50;1.50;;;17.80;62.00;;;;;;5056390;28;43423;-68
2023/04/06 02:08:43;;;;;;;1.60;1.60;;;17.70;62.00;;;;;;5049449;28;45777;-69
2023/04/06 02:11:12;;;;;;;1.63;1.63;;;17.70;62.10;;;;;;5071050;28;43456;-70
2023/04/06 02:13:46;;;;;;;1.60;1.60;;;17.70;62.30;;;;;;5055206;28;43460;-70
2023/04/06 02:16:15;;;;;;;1.50;1.50;;;17.60;62.30;;;;;;5048702;28;43483;-69
2023/04/06 02:18:45;;;;;;;1.50;1.50;;;17.70;62.20;;;;;;5055724;28;45633;-68
2023/04/06 02:21:17;;;;;;;1.57;1.57;;;17.70;62.30;;;;;;5070562;28;43478;-68
2023/04/06 02:23:45;;;;;;;1.60;1.60;;;17.60;62.20;;;;;;5050470;28;43442;-69
2023/04/06 02:26:15;;;;;;;1.60;1.60;;;17.60;62.30;;;;;;5072504;28;43444;-68
2023/04/06 02:28:43;;;;;;;1.60;1.60;;;17.60;62.40;;;;;;5073487;28;43722;-68
2023/04/06 02:31:11;;;;;;;1.70;1.70;;;17.60;62.50;;;;;;5073166;28;43451;-68
2023/04/06 02:33:39;;;;;;;1.80;1.80;;;17.70;62.40;;;;;;5069439;28;44016;-67
2023/04/06 02:36:08;;;;;;;1.47;1.47;;;17.80;62.20;;;;;;5055056;28;43603;-69
2023/04/06 02:38:36;;;;;;;1.57;1.57;;;17.80;62.50;;;;;;5053943;28;46077;-69
2023/04/06 02:41:04;;;;;;;1.90;1.90;;;17.80;61.90;;;;;;5063106;28;43447;-68
2023/04/06 02:43:34;;;;;;;1.80;1.80;;;17.70;61.90;;;;;;5070484;28;43539;-68
2023/04/06 02:46:10;;;;;;;1.87;1.87;;;17.70;62.80;;;;;;5055099;28;43472;-69
2023/04/06 02:48:39;;;;;;;1.60;1.60;;;17.70;61.90;;;;;;5053969;28;44992;-71
2023/04/06 02:51:07;;;;;;;1.57;1.57;;;17.70;62.00;;;;;;5068045;28;43364;-69
2023/04/06 02:53:37;;;;;;;1.70;1.70;;;17.70;62.10;;;;;;5051729;28;43464;-70
2023/04/06 02:56:06;;;;;;;1.80;1.80;;;17.70;62.30;;;;;;5047462;28;43447;-67
2023/04/06 02:58:47;;;;;;;1.77;1.77;;;17.60;62.20;;;;;;5055067;28;44114;-68
2023/04/06 03:01:16;;;;;;;1.60;1.60;;;17.60;62.40;;;;;;5060630;28;43860;-69
2023/04/06 03:03:52;;;;;;;1.70;1.70;;;17.70;62.30;;;;;;5050775;28;43477;-68
2023/04/06 03:06:26;;;;;;;1.77;1.77;;;17.80;62.00;;;;;;5052372;28;43421;-72
2023/04/06 03:08:58;;;;;;;1.80;1.80;;;17.80;61.80;;;;;;5053872;28;43840;-68
2023/04/06 03:11:26;;;;;;;1.60;1.60;;;17.70;61.80;;;;;;5056773;28;44832;-68
2023/04/06 03:13:56;;;;;;;1.97;1.97;;;17.70;62.00;;;;;;5072240;28;43396;-68
2023/04/06 03:16:24;;;;;;;1.70;1.70;;;17.70;62.30;;;;;;5076868;28;43345;-70
2023/04/06 03:18:53;;;;;;;1.87;1.87;;;17.70;62.00;;;;;;5071923;28;44114;-69
2023/04/06 03:21:22;;;;;;;1.60;1.60;;;17.70;62.10;;;;;;5054258;28;44360;-67
2023/04/06 03:23:52;;;;;;;1.70;1.70;;;17.70;62.20;;;;;;5079967;28;43359;-68
2023/04/06 03:26:22;;;;;;;1.80;1.80;;;17.60;62.20;;;;;;5052208;28;43534;-68
2023/04/06 03:28:51;;;;;;;1.90;1.90;;;17.60;62.30;;;;;;5048292;28;45602;-68
2023/04/06 03:31:25;;;;;;;1.60;1.60;;;17.60;62.50;;;;;;5047746;28;43549;-68
2023/04/06 03:33:58;;;;;;;1.67;1.67;;;17.60;62.20;;;;;;5053639;28;43446;-69
2023/04/06 03:36:31;;;;;;;1.50;1.50;;;17.60;62.30;;;;;;5048154;28;43492;-67
2023/04/06 03:39:00;;;;;;;1.80;1.80;;;17.60;62.30;;;;;;5057601;28;43936;-67
2023/04/06 03:41:31;;;;;;;1.73;1.73;;;17.60;62.40;;;;;;5056676;28;43454;-68
2023/04/06 03:44:08;;;;;;;1.80;1.80;;;17.60;62.50;;;;;;5052034;28;43387;-68
2023/04/06 03:46:38;;;;;;;1.97;1.97;;;17.60;62.50;;;;;;5058227;28;43483;-69
2023/04/06 03:49:08;;;;;;;1.73;1.73;;;17.70;62.40;;;;;;5078840;28;45330;-69
2023/04/06 03:51:36;;;;;;;1.70;1.70;;;17.80;62.10;;;;;;5068170;28;43877;-69
2023/04/06 03:54:06;;;;;;;1.80;1.80;;;17.80;61.60;;;;;;5056172;28;43424;-68
2023/04/06 03:56:36;;;;;;;1.97;1.97;;;17.80;61.60;;;;;;5058463;28;43644;-69
2023/04/06 03:59:04;;;;;;;1.83;1.83;;;17.80;61.80;;;;;;5069852;28;43664;-68
2023/04/06 04:01:32;;;;;;;2.00;2.00;;;17.80;61.90;;;;;;5076150;28;43383;-68
2023/04/06 04:04:01;;;;;;;1.90;1.90;;;17.80;61.60;;;;;;5039202;28;43386;-69
2023/04/06 04:06:33;;;;;;;1.87;1.87;;;17.80;61.60;;;;;;5061985;28;43452;-71
2023/04/06 04:09:05;;;;;;;1.80;1.80;;;17.80;61.90;;;;;;5039326;28;45362;-69
2023/04/06 04:11:33;;;;;;;1.80;1.80;;;17.70;61.90;;;;;;5036501;28;44328;-69
2023/04/06 04:14:01;;;;;;;2.00;2.00;;;17.70;62.00;;;;;;5062831;28;43361;-69
2023/04/06 04:16:29;;;;;;;1.90;1.90;;;17.70;62.20;;;;;;5040643;28;44594;-69
2023/04/06 04:18:58;;;;;;;2.10;2.00;;;17.70;61.90;;;;;;5057184;28;43594;-68
2023/04/06 04:21:30;;;;;;;1.70;1.70;;;17.70;62.70;;;;;;5034586;28;44769;-71
2023/04/06 04:24:01;;;;;;;1.90;1.90;;;17.70;62.00;;;;;;5033882;28;43458;-69
2023/04/06 04:26:29;;;;;;;1.67;1.67;;;17.70;62.20;;;;;;5037772;28;43453;-69
2023/04/06 04:28:57;;;;;;;1.70;1.70;;;17.60;62.20;;;;;;5055545;28;43615;-69
2023/04/06 04:31:25;;;;;;;1.87;1.87;;;17.60;62.20;;;;;;5037502;28;45022;-70
2023/04/06 04:33:58;;;;;;;1.83;1.73;;;17.70;62.20;;;;;;5037213;28;43523;-68
2023/04/06 04:36:32;;;;;;;1.90;1.90;;;17.80;62.00;;;;;;5039029;28;43578;-70
2023/04/06 04:39:04;;;;;;;1.90;1.90;;;17.90;61.80;;;;;;5036203;28;45901;-67
2023/04/06 04:41:37;;;;;;;1.90;1.80;;;17.90;61.40;;;;;;5041186;28;43457;-68
2023/04/06 04:44:09;;;;;;;1.83;1.83;;;17.80;61.50;;;;;;5032589;28;43485;-67
2023/04/06 04:46:37;;;;;;;1.70;1.70;;;17.80;61.80;;;;;;5037224;28;43502;-68
2023/04/06 04:49:06;;;;;;;1.80;1.80;;;17.80;61.70;;;;;;5041361;28;44611;-70
2023/04/06 04:51:36;;;;;;;1.80;1.80;;;17.80;61.70;;;;;;5036008;28;43453;-69
2023/04/06 04:54:09;;;;;;;1.70;1.70;;;17.70;61.70;;;;;;5037045;28;43545;-68
2023/04/06 04:56:41;;;;;;;1.67;1.67;;;17.70;61.90;;;;;;5032359;28;43441;-67
2023/04/06 04:59:35;;;;;;;2.10;2.10;;;17.70;62.00;;;;;;5047771;28;43586;-68
2023/04/06 05:02:15;;;;;;;1.80;1.80;;;17.60;62.10;;;;;;5036600;28;44522;-68
2023/04/06 05:05:01;;;;;;;1.90;1.90;;;17.70;62.00;;;;;;5037583;28;43447;-69
2023/04/06 05:07:31;;;;;;;2.10;2.10;;;17.60;62.00;;;;;;5037103;28;43492;-72
2023/04/06 05:10:01;;;;;;;1.77;1.77;;;17.60;62.10;;;;;;5038237;28;44801;-72
2023/04/06 05:12:34;;;;;;;1.90;1.90;;;17.60;62.20;;;;;;5035633;28;44626;-68
2023/04/06 05:15:07;;;;;;;1.90;1.90;;;17.60;62.20;;;;;;5040643;28;43436;-68
2023/04/06 05:17:35;;;;;;;1.67;1.67;;;17.60;62.40;;;;;;5061932;28;43938;-70
2023/04/06 05:20:06;;;;;;;1.87;1.87;;;17.70;62.30;;;;;;5037400;28;45730;-67
2023/04/06 05:22:42;;;;;;;1.80;1.80;;;17.70;62.00;;;;;;5035928;28;43456;-68
2023/04/06 05:25:11;;;;;;;1.80;1.80;;;17.70;61.70;;;;;;5036058;28;43543;-68
2023/04/06 05:27:40;;;;;;;1.70;1.70;;;17.70;61.70;;;;;;5038120;28;43627;-68
2023/04/06 05:30:19;;;;;;;2.00;2.00;;;17.70;61.80;;;;;;5037057;28;43769;-70
2023/04/06 05:32:49;;;;;;;2.03;2.03;;;17.70;62.20;;;;;;5037337;28;44660;-69
2023/04/06 05:35:18;;;;;;;1.60;1.60;;;17.70;61.90;;;;;;5037658;28;43432;-68
2023/04/06 05:37:52;;;;;;;1.90;1.90;;;17.70;61.80;;;;;;5054142;28;44052;-70
2023/04/06 05:40:24;;;;;;;1.97;1.97;;;17.70;62.00;;;;;;5043628;28;43947;-68
2023/04/06 05:42:52;;;;;;;1.83;1.80;;;17.60;61.90;;;;;;5038305;28;45215;-68
2023/04/06 05:45:21;;;;;;;1.97;1.97;;;17.60;62.70;;;;;;5035144;28;43465;-68
2023/04/06 05:47:54;;;;;;;1.80;1.80;;;17.60;62.20;;;;;;5035539;28;43481;-69
2023/04/06 05:50:31;;;;;;;1.63;1.63;;;17.60;61.80;;;;;;5041774;28;44123;-69
2023/04/06 05:53:01;;;;;;;1.60;1.60;;;17.60;61.80;;;;;;5059088;28;43384;-71
2023/04/06 05:55:37;;;;;;;1.83;1.83;;;17.60;61.90;;;;;;5037366;28;44002;-67
2023/04/06 05:58:11;;;;;;;2.00;2.00;;;17.60;61.90;;;;;;5038743;28;43441;-68
2023/04/06 06:00:39;;;;;;;1.70;1.70;;;17.60;61.90;;;;;;5055230;28;43577;-67
2023/04/06 06:03:09;;;;;;;1.90;1.90;;;17.60;62.00;;;;;;5044036;28;44034;-69
2023/04/06 06:05:40;;;;;;;1.90;1.90;;;17.70;61.90;;;;;;5057090;28;43493;-69
2023/04/06 06:08:15;;;;;;;2.00;2.00;;;17.80;61.60;;;;;;5050437;28;43571;-68
2023/04/06 06:10:45;;;;;;;1.80;1.80;;;17.90;61.20;;;;;;5069382;28;44121;-69
2023/04/06 06:13:14;;;;;;;1.80;1.80;;;17.90;61.00;;;;;;5054963;28;43430;-69
2023/04/06 06:15:43;;;;;;;2.20;2.20;;;17.90;61.10;;;;;;5058210;28;43419;-67
2023/04/06 06:18:11;;;;;;;1.80;1.80;;;17.90;61.50;;;;;;5055133;28;43481;-68
2023/04/06 06:20:39;;;;;;;1.60;1.60;;;17.90;61.20;;;;;;5074764;28;43869;-69
2023/04/06 06:23:07;;;;;;;1.90;1.90;;;17.80;61.20;;;;;;5048462;28;45061;-69
2023/04/06 06:25:38;;;;;;;1.93;1.93;;;17.80;61.30;;;;;;5053146;28;43482;-69
2023/04/06 06:28:06;;;;;;;1.93;1.93;;;17.80;61.50;;;;;;5055813;28;43449;-70
2023/04/06 06:30:35;;;;;;;1.87;1.87;;;17.70;61.60;;;;;;5052199;28;44253;-69
2023/04/06 06:33:05;;;;;;;1.90;1.90;;;17.70;61.80;;;;;;5049594;28;45938;-69
2023/04/06 06:35:33;;;;;;;2.00;2.00;;;17.70;61.70;;;;;;5074193;28;43572;-70
2023/04/06 06:38:04;;;;;;;1.83;1.80;;;17.70;61.70;;;;;;5057288;28;43671;-68
2023/04/06 06:40:34;;;;;;;1.70;1.70;;;17.70;61.70;;;;;;5054527;28;45394;-70
2023/04/06 06:43:06;;;;;;;2.07;2.07;;;17.70;61.90;;;;;;5055740;28;44752;-71
2023/04/06 06:45:46;;;;;;;2.17;2.10;;;17.60;61.90;;;;;;5052718;28;43391;-67
2023/04/06 06:48:14;;;;;;;2.30;2.07;;;17.60;62.00;;;;;;5050738;28;43799;-68
2023/04/06 06:50:45;;;;;;;2.40;2.30;;;17.70;62.00;;;;;;5051162;28;45786;-72
2023/04/06 06:53:14;;;;;;;2.57;2.47;;;17.80;61.80;;;;;;5075652;28;43491;-69
2023/04/06 06:55:43;;;;;;;2.23;2.13;;;17.80;61.50;;;;;;5046377;28;43503;-70
2023/04/06 06:58:13;;;;;;;2.40;2.30;;;17.80;61.40;;;;;;5050574;28;43437;-69
2023/04/06 07:00:41;;;;;;;3.70;3.37;;;17.70;62.20;;;;;;5049118;28;45320;-68
2023/04/06 07:03:09;;;;;;;3.30;3.00;;;17.70;61.80;;;;;;5059153;28;44702;-68
2023/04/06 07:05:38;;;;;;;3.03;2.83;;;17.70;61.70;;;;;;5052313;28;43459;-70
2023/04/06 07:08:08;;;;;;;3.67;3.37;;;17.70;61.70;;;;;;5056368;28;43539;-70
2023/04/06 07:10:36;;;;;;;3.30;3.10;;;17.70;62.60;;;;;;5055306;28;46125;-69
2023/04/06 07:13:04;;;;;;;3.33;3.03;;;17.70;61.90;;;;;;5055709;28;45153;-69
2023/04/06 07:15:34;;;;;;;3.60;3.30;;;17.60;61.90;;;;;;5058031;28;43504;-70
2023/04/06 07:18:03;;;;;;;3.40;3.10;;;17.60;62.30;;;;;;5059622;28;43550;-67
2023/04/06 07:20:31;;;;;;;3.80;3.50;;;17.60;62.00;;;;;;5074026;28;43839;-68
2023/04/06 07:22:59;;;;;;;3.40;3.10;;;17.60;62.00;;;;;;5074125;28;43445;-69
2023/04/06 07:25:27;;;;;;;4.03;3.37;;;17.60;62.10;;;;;;5051799;28;43499;-67
2023/04/06 07:27:55;;;;;;;3.73;3.43;;;17.60;62.20;;;;;;5077001;28;43485;-70
2023/04/06 07:30:26;;;;;;;4.80;3.57;;;17.60;62.20;;;;;;5055618;28;44039;-72
2023/04/06 07:32:56;;;;;;;3.20;2.90;;;17.50;62.20;;;;;;5055994;28;43394;-67
2023/04/06 07:35:25;;;;;;;3.83;3.43;;;17.60;62.10;;;;;;5053882;28;43392;-74
2023/04/06 07:37:54;;;;;;;3.10;2.90;;;17.60;62.80;;;;;;5053284;28;43448;-68
2023/04/06 07:40:22;;;;;;;3.63;3.27;;;17.60;62.10;;;;;;5075451;28;43823;-69
2023/04/06 07:42:51;;;;;;;3.50;3.30;;;17.60;62.20;;;;;;5055365;28;43441;-69
2023/04/06 07:45:19;;;;;;;4.67;3.47;;;17.60;62.20;;;;;;5056518;28;43926;-68
2023/04/06 07:47:48;;;;;;;3.73;3.40;;;17.60;62.20;;;;;;5058567;28;43601;-69
2023/04/06 07:50:18;;;;;;;3.23;3.03;;;17.60;62.20;;;;;;5054156;28;44002;-69
2023/04/06 07:52:46;;;;;;;3.60;3.30;;;17.70;62.00;;;;;;5061771;28;44797;-70
2023/04/06 07:55:15;;;;;;;3.93;3.63;;;17.80;61.70;;;;;;5059966;28;43507;-68
2023/04/06 07:57:43;;;;;;;4.20;3.37;;;17.90;61.40;;;;;;5075745;28;43414;-69
2023/04/06 08:00:12;;;;;;;3.53;3.23;;;17.90;61.30;;;;;;5071126;28;44193;-68
2023/04/06 08:02:40;;;;;;;3.20;3.00;;;17.80;61.40;;;;;;5071063;28;43568;-68
2023/04/06 08:05:09;;;;;;;3.13;2.93;;;17.80;61.60;;;;;;5066920;28;43451;-68
2023/04/06 08:07:39;;;;;;;3.30;3.00;;;17.80;61.50;;;;;;5075476;28;43490;-67
2023/04/06 08:10:07;;;;;;;3.30;3.00;;;17.80;61.60;;;;;;5071412;28;44286;-69
2023/04/06 08:12:35;;;;;;;3.57;3.27;;;17.70;61.70;;;;;;5076212;28;43460;-67
2023/04/06 08:15:04;;;;;;;2.87;2.67;;;17.70;61.90;;;;;;5077197;28;43535;-70
2023/04/06 08:17:33;;;;;;;3.53;3.33;;;17.70;62.70;;;;;;5077281;28;43425;-70
2023/04/06 08:20:03;;;;;;;3.30;2.97;;;17.60;62.10;;;;;;5071979;28;43931;-69
2023/04/06 08:22:31;;;;;;;3.40;3.20;;;17.60;62.00;;;;;;5075517;28;43487;-69
2023/04/06 08:25:02;;;;;;;3.20;3.00;;;17.60;62.10;;;;;;5056345;28;43507;-68
2023/04/06 08:27:30;;;;;;;3.00;2.80;;;17.60;62.20;;;;;;5058740;28;43507;-69
2023/04/06 08:29:58;;;;;;;3.40;3.10;;;17.60;62.30;;;;;;5074720;28;43937;-67
2023/04/06 08:32:26;;;;;;;3.10;2.90;;;17.50;62.30;;;;;;5072584;28;43392;-68
2023/04/06 08:34:54;;;;;;;3.00;2.80;;;17.50;62.40;;;;;;5051393;28;43417;-69
2023/04/06 08:37:22;;;;;;;3.10;2.90;;;17.50;62.30;;;;;;5077575;28;43428;-70
2023/04/06 08:39:51;;;;;;;3.20;2.93;;;17.50;62.20;;;;;;5077477;28;43818;-69
2023/04/06 08:42:22;;;;;;;3.30;3.00;;;17.50;62.30;;;;;;5076589;28;43468;-67
2023/04/06 08:44:50;;;;;;;3.27;3.03;;;17.50;62.40;;;;;;5076606;28;43452;-68
2023/04/06 08:47:19;;;;;;;2.93;2.73;;;17.50;62.50;;;;;;5059150;28;43425;-68
2023/04/06 08:49:51;;;;;;;3.13;2.93;;;17.50;62.60;;;;;;5076984;28;43597;-68
2023/04/06 08:52:19;;;;;;;2.77;2.60;;;17.50;62.50;;;;;;5077028;28;44022;-69
2023/04/06 08:54:48;;;;;;;2.83;2.63;;;17.60;62.40;;;;;;5084153;28;43536;-68
2023/04/06 08:57:16;;;;;;;3.17;2.97;;;17.70;62.00;;;;;;5076260;28;43418;-67
2023/04/06 08:59:45;;;;;;;2.73;2.60;;;17.80;61.80;;;;;;5056029;28;45696;-69
2023/04/06 09:02:16;;;;;;;2.80;2.70;;;17.80;61.80;;;;;;5073427;28;43412;-68
2023/04/06 09:04:45;;;;;;;4.50;3.57;;;17.70;61.80;;;;;;5068009;28;43549;-68
2023/04/06 09:07:13;;;;;;;4.40;3.30;;;17.70;61.20;;;;;;5065683;28;43476;-69
2023/04/06 09:09:47;;;;;;;3.07;2.87;;;17.70;61.30;;;;;;5069099;28;43625;-67
2023/04/06 09:12:23;;;;;;;3.27;3.07;;;17.70;61.50;;;;;;5067979;28;43491;-68
2023/04/06 09:14:53;;;;;;;3.83;3.43;;;17.60;61.20;;;;;;5068610;28;43432;-68
2023/04/06 09:17:22;;;;;;;4.40;4.10;;;17.60;61.60;;;;;;5049152;28;43534;-72
2023/04/06 09:19:50;;;;;;;4.43;4.07;;;17.60;59.90;;;;;;5064672;28;43681;-70
2023/04/06 09:22:19;;;;;;;6.03;4.30;;;17.50;59.10;;;;;;5068541;28;44519;-69
2023/04/06 09:24:47;;;;;;;4.20;3.80;;;17.50;59.10;;;;;;5049437;28;43869;-69
2023/04/06 09:27:16;;;;;;;4.77;4.30;;;17.50;59.10;;;;;;5051981;28;43475;-70
2023/04/06 09:29:44;;;;;;;5.27;3.97;;;17.50;59.10;;;;;;5070531;28;43916;-70
2023/04/06 09:32:16;;;;;;;15.17;5.23;;;17.50;59.20;;;;;;5069182;28;43427;-68
2023/04/06 09:34:48;;;;;;;7.83;4.60;;;17.50;59.20;;;;;;5071956;28;43466;-69
2023/04/06 09:37:18;;;;;;;9.93;5.03;;;17.50;58.00;;;;;;5066250;28;43461;-69
2023/04/06 09:39:47;;;;;;;12.33;4.83;;;17.50;58.20;;;;;;5052198;28;45952;-68
2023/04/06 09:42:25;;;;;;;14.37;5.60;;;17.60;58.30;;;;;;5067005;28;43402;-69
2023/04/06 09:44:53;;;;;;;11.97;5.60;;;17.60;58.40;;;;;;5062262;28;43423;-68
2023/04/06 09:47:22;;;;;;;5.20;4.30;;;17.60;58.60;;;;;;5069825;28;43572;-69
2023/04/06 09:49:56;;;;;;;10.93;5.33;;;17.60;58.80;;;;;;5048299;28;43997;-67
2023/04/06 09:52:26;;;;;;;9.80;5.40;;;17.60;58.80;;;;;;5046718;28;44903;-73
2023/04/06 09:54:54;;;;;;;13.37;5.40;;;17.60;59.00;;;;;;5070304;28;43437;-69
2023/04/06 09:57:24;;;;;;;8.83;4.97;;;17.50;59.80;;;;;;5072602;28;43474;-68
2023/04/06 09:59:57;;;;;;;9.70;4.67;;;17.50;59.90;;;;;;5073061;28;43703;-69
2023/04/06 10:02:29;;;;;;;6.43;4.70;;;17.50;59.50;;;;;;5052005;28;44744;-71
2023/04/06 10:04:59;;;;;;;10.93;5.20;;;17.50;59.60;;;;;;5049975;28;43357;-67
2023/04/06 10:07:28;;;;;;;7.83;5.27;;;17.50;59.40;;;;;;5062246;28;43495;-69
2023/04/06 10:09:56;;;;;;;11.77;4.97;;;17.50;59.60;;;;;;5066155;28;43821;-69
2023/04/06 10:12:24;;;;;;;7.33;4.63;;;17.50;59.70;;;;;;5070832;28;43439;-68
2023/04/06 10:14:52;;;;;;;9.63;5.40;;;17.50;59.80;;;;;;5070645;28;43812;-68
2023/04/06 10:17:20;;;;;;;7.47;4.80;;;17.40;59.80;;;;;;5071148;28;43372;-70
2023/04/06 10:20:03;;;;;;;12.03;5.00;;;17.40;59.90;;;;;;5067622;28;44741;-69
2023/04/06 10:22:35;;;;;;;8.00;4.80;;;17.40;59.80;;;;;;5064750;28;43476;-69
2023/04/06 10:25:04;;;;;;;10.40;5.03;;;17.40;59.60;;;;;;5069258;28;43536;-69
2023/04/06 10:27:32;;;;;;;11.20;5.20;;;17.50;59.70;;;;;;5049992;28;43639;-67
2023/04/06 10:30:04;;;;;;;11.67;4.50;;;17.60;59.50;;;;;;5050458;28;45665;-69
2023/04/06 10:32:36;;;;;;;7.17;4.23;;;17.60;59.60;;;;;;5065853;28;43442;-68
2023/04/06 10:35:10;;;;;;;8.67;4.77;;;17.70;59.90;;;;;;5070850;28;43436;-71
2023/04/06 10:37:50;;;;;;;6.40;4.77;;;17.60;60.40;;;;;;5067868;28;44055;-70
2023/04/06 10:40:25;;;;;;;12.20;5.13;;;17.60;59.80;;;;;;5056707;28;46019;-69
2023/04/06 10:42:54;;;;;;;6.10;4.00;;;17.60;60.10;;;;;;5050469;28;44703;-69
2023/04/06 10:45:23;;;;;;;9.40;4.87;;;17.60;60.20;;;;;;5073252;28;43443;-69
2023/04/06 10:47:53;;;;;;;4.33;3.93;;;17.60;60.30;;;;;;5047644;28;43428;-68
2023/04/06 10:50:22;;;;;;;14.07;4.80;;;17.50;60.30;;;;;;5065412;28;43618;-68
2023/04/06 10:52:59;;;;;;;13.80;4.67;;;17.50;60.30;;;;;;5065139;28;44536;-70
2023/04/06 10:55:28;;;;;;;6.73;4.80;;;17.50;60.30;;;;;;5069989;28;43515;-69
2023/04/06 10:57:56;;;;;;;16.63;4.43;;;17.50;60.50;;;;;;5071667;28;43401;-69
2023/04/06 11:00:25;;;;;;;9.90;4.87;;;17.50;60.60;;;;;;5067968;28;43757;-70
2023/04/06 11:03:06;;;;;;;7.00;4.50;;;17.50;60.70;;;;;;5048541;28;44611;-68
2023/04/06 11:05:36;;;;;;;7.97;4.47;;;17.50;60.80;;;;;;5064945;28;43455;-70
2023/04/06 11:08:04;;;;;;;6.23;4.40;;;17.50;60.80;;;;;;5065857;28;43449;-69
2023/04/06 11:10:33;;;;;;;8.70;4.77;;;17.50;60.60;;;;;;5046897;28;46105;-68
2023/04/06 11:13:02;;;;;;;9.33;4.80;;;17.50;60.40;;;;;;5046893;28;44960;-68
2023/04/06 11:15:35;;;;;;;7.70;4.70;;;17.60;60.60;;;;;;5067518;28;43372;-68
2023/04/06 11:18:06;;;;;;;6.50;4.40;;;17.60;60.70;;;;;;5065912;28;43450;-69
2023/04/06 11:20:36;;;;;;;9.17;3.80;;;17.60;60.80;;;;;;5065917;28;43843;-68
2023/04/06 11:23:06;;;;;;;11.10;4.30;;;17.50;60.80;;;;;;5083943;22;44371;31
2023/04/06 11:25:34;;;;;;;14.30;4.40;;;17.50;60.80;;;;;;5024715;28;44107;-78
2023/04/06 11:28:02;;;;;;;9.03;4.20;;;17.50;60.90;;;;;;5030886;28;43516;-77
2023/04/06 11:30:30;;;;;;;11.10;4.43;;;17.50;61.00;;;;;;5029368;28;44429;-76
2023/04/06 11:33:02;;;;;;;6.83;4.10;;;17.50;61.00;;;;;;5029916;28;43468;-75
2023/04/06 11:35:30;;;;;;;10.77;4.33;;;17.50;61.20;;;;;;5023614;28;43438;-74
2023/04/06 11:37:59;;;;;;;11.73;4.10;;;17.50;60.80;;;;;;5005406;28;43505;-74
2023/04/06 11:40:29;;;;;;;9.50;4.40;;;17.50;60.60;;;;;;5021195;28;46033;-78
2023/04/06 11:42:57;;;;;;;6.00;4.50;;;17.60;60.50;;;;;;5023083;28;43847;-74
2023/04/06 11:45:26;;;;;;;7.00;3.90;;;17.60;60.50;;;;;;5022108;28;43427;-74
2023/04/06 11:47:59;;;;;;;5.67;4.13;;;17.60;60.60;;;;;;5006944;28;43644;-79
2023/04/06 11:50:32;;;;;;;4.40;4.00;;;17.60;60.70;;;;;;5022501;28;44028;-79
2023/04/06 11:53:02;;;;;;;5.53;4.23;;;17.60;60.60;;;;;;5022543;28;43479;-80
2023/04/06 11:55:37;;;;;;;3.90;3.60;;;17.60;60.70;;;;;;5008967;28;43575;-78
2023/04/06 11:58:06;;;;;;;6.13;3.90;;;17.60;60.90;;;;;;5009206;28;43461;-78
2023/04/06 12:00:36;;;;;;;4.93;3.33;;;17.60;61.00;;;;;;5027440;28;43826;-78
2023/04/06 12:03:05;;;;;;;4.60;3.50;;;17.60;61.00;;;;;;5024417;28;43436;-78
2023/04/06 12:05:34;;;;;;;6.00;4.17;;;17.60;61.20;;;;;;5008990;28;44202;-77
2023/04/06 12:08:04;;;;;;;4.23;3.80;;;17.60;61.20;;;;;;5013853;28;43463;-80
2023/04/06 12:10:32;;;;;;;3.93;3.63;;;17.60;61.20;;;;;;5011978;28;43725;-76
2023/04/06 12:13:00;;;;;;;5.13;3.63;;;17.60;61.30;;;;;;5012299;28;44431;-81
2023/04/06 12:15:28;;;;;;;4.10;3.80;;;17.60;61.30;;;;;;5013848;28;43429;-78
2023/04/06 12:17:56;;;;;;;4.10;3.80;;;17.50;61.20;;;;;;5013877;28;43493;-78
2023/04/06 12:20:25;;;;;;;4.10;3.83;;;17.50;61.30;;;;;;5013186;28;44036;-79
2023/04/06 12:22:54;;;;;;;4.10;3.67;;;17.50;61.30;;;;;;5013098;28;43464;-79
2023/04/06 12:25:24;;;;;;;4.20;3.73;;;17.50;61.20;;;;;;4996380;28;43529;-79
2023/04/06 12:27:52;;;;;;;5.43;3.50;;;17.60;61.00;;;;;;5015434;28;44024;-80
2023/04/06 12:30:20;;;;;;;4.10;3.70;;;17.70;61.00;;;;;;5014134;28;43906;-79
2023/04/06 12:32:49;;;;;;;3.80;3.50;;;17.70;61.10;;;;;;5014469;28;44767;-79
2023/04/06 12:35:18;;;;;;;3.80;3.50;;;17.60;61.10;;;;;;5015577;28;43413;-80
2023/04/06 12:37:46;;;;;;;3.97;3.67;;;17.60;61.20;;;;;;5001094;28;43518;-78
2023/04/06 12:40:14;;;;;;;4.13;3.77;;;17.60;61.20;;;;;;5012070;28;45558;-79
2023/04/06 12:42:45;;;;;;;4.10;3.50;;;17.60;61.30;;;;;;4994007;28;44532;-79
2023/04/06 12:45:13;;;;;;;3.40;3.13;;;17.60;61.50;;;;;;5012915;28;43489;-79
2023/04/06 12:47:41;;;;;;;3.47;3.17;;;17.60;61.60;;;;;;5014463;28;43517;-78
2023/04/06 12:50:10;;;;;;;4.83;3.50;;;17.60;61.70;;;;;;5009156;28;46017;-80
2023/04/06 12:52:38;;;;;;;3.93;3.33;;;17.50;61.70;;;;;;5013297;28;43978;-80
2023/04/06 12:55:07;;;;;;;6.30;3.40;;;17.50;61.70;;;;;;5014309;28;43539;-79
2023/04/06 12:57:36;;;;;;;14.17;3.93;;;17.50;61.90;;;;;;5013736;28;43376;-78
2023/04/06 13:00:08;;;;;;;4.67;3.53;;;17.50;61.90;;;;;;5012923;28;44197;-79
2023/04/06 13:02:36;;;;;;;7.63;3.63;;;17.50;62.00;;;;;;5013220;28;44010;-80